Severobaykal'sk, Russia
Current Conditions -  °F | °C
As of 10:30 AM on Tuesday 21 Oct 2014 (Local Time) from UIUU Reporting Station
Few Clouds Few Clouds  
Wind Chill: 18°   Ceiling: Unl
Heat Index: 18°   Visibility: 6mi
Dew Point:   Wind: 2mph
Humidity: 58%   Direction: NA
Pressure: 30.18"   Gusts: NA
Location:  55.44°N, 109.19°E
Report Text: UIUU 210230Z VRB01MPS 9999 FEW100 M08/M15 Q1022 NOSIG RMKQFE722/0962 26CLRD60
Loading
Personal Weather Stations






























Interactive Weather Map
Tropical Storm Tracking
New forecast layout! Learn more

10-Day Weather Forecast

Advertisements
Track Severe Weather on mobile